sensor_id;sensor_type;location;lat;lon;timestamp;temperature;humidity
27540;DHT22;15906;52.046;4.724;2023-09-19T00:01:06;14.00;99.90
27540;DHT22;15906;52.046;4.724;2023-09-19T00:03:34;14.10;99.90
27540;DHT22;15906;52.046;4.724;2023-09-19T00:06:01;14.00;99.90
27540;DHT22;15906;52.046;4.724;2023-09-19T00:08:26;14.10;99.90
27540;DHT22;15906;52.046;4.724;2023-09-19T00:10:54;14.10;99.90
27540;DHT22;15906;52.046;4.724;2023-09-19T00:13:20;14.10;99.90
27540;DHT22;15906;52.046;4.724;2023-09-19T00:15:47;14.10;99.90
27540;DHT22;15906;52.046;4.724;2023-09-19T00:18:16;14.10;99.90
27540;DHT22;15906;52.046;4.724;2023-09-19T00:20:44;14.10;99.90
27540;DHT22;15906;52.046;4.724;2023-09-19T00:23:17;14.10;99.90
27540;DHT22;15906;52.046;4.724;2023-09-19T00:25:44;14.10;99.90
27540;DHT22;15906;52.046;4.724;2023-09-19T00:28:10;14.10;99.90
27540;DHT22;15906;52.046;4.724;2023-09-19T00:30:36;14.10;99.90
27540;DHT22;15906;52.046;4.724;2023-09-19T00:33:04;14.20;99.90
27540;DHT22;15906;52.046;4.724;2023-09-19T00:35:31;14.10;99.90
27540;DHT22;15906;52.046;4.724;2023-09-19T00:37:57;14.10;99.90
27540;DHT22;15906;52.046;4.724;2023-09-19T00:40:22;14.10;99.90
27540;DHT22;15906;52.046;4.724;2023-09-19T00:42:49;14.10;99.90
27540;DHT22;15906;52.046;4.724;2023-09-19T00:45:16;14.00;99.90
27540;DHT22;15906;52.046;4.724;2023-09-19T00:47:44;14.00;99.90
27540;DHT22;15906;52.046;4.724;2023-09-19T00:50:11;13.90;99.90
27540;DHT22;15906;52.046;4.724;2023-09-19T00:52:40;13.90;99.90
27540;DHT22;15906;52.046;4.724;2023-09-19T00:55:08;14.00;99.90
27540;DHT22;15906;52.046;4.724;2023-09-19T00:57:34;13.90;99.90
27540;DHT22;15906;52.046;4.724;2023-09-19T01:00:02;13.90;99.90
27540;DHT22;15906;52.046;4.724;2023-09-19T01:02:36;13.90;99.90
27540;DHT22;15906;52.046;4.724;2023-09-19T01:05:02;13.80;99.90
27540;DHT22;15906;52.046;4.724;2023-09-19T01:07:31;13.80;99.90
27540;DHT22;15906;52.046;4.724;2023-09-19T01:09:57;13.90;99.90
27540;DHT22;15906;52.046;4.724;2023-09-19T01:18:11;13.80;99.90
27540;DHT22;15906;52.046;4.724;2023-09-19T01:20:55;13.80;99.90
27540;DHT22;15906;52.046;4.724;2023-09-19T01:29:12;13.80;99.90
27540;DHT22;15906;52.046;4.724;2023-09-19T01:31:40;13.70;99.90
27540;DHT22;15906;52.046;4.724;2023-09-19T01:34:08;13.70;99.90
27540;DHT22;15906;52.046;4.724;2023-09-19T01:36:37;13.80;99.90
27540;DHT22;15906;52.046;4.724;2023-09-19T01:39:05;13.80;99.90
27540;DHT22;15906;52.046;4.724;2023-09-19T01:42:05;13.80;99.90
27540;DHT22;15906;52.046;4.724;2023-09-19T01:44:51;13.90;99.90
27540;DHT22;15906;52.046;4.724;2023-09-19T01:47:28;13.80;99.90
27540;DHT22;15906;52.046;4.724;2023-09-19T01:52:54;14.20;99.90
27540;DHT22;15906;52.046;4.724;2023-09-19T01:55:20;14.40;99.90
27540;DHT22;15906;52.046;4.724;2023-09-19T02:00:36;14.30;99.90
27540;DHT22;15906;52.046;4.724;2023-09-19T02:03:03;14.30;99.90
27540;DHT22;15906;52.046;4.724;2023-09-19T02:05:29;14.30;99.90
27540;DHT22;15906;52.046;4.724;2023-09-19T02:07:55;14.20;99.90
27540;DHT22;15906;52.046;4.724;2023-09-19T02:10:21;14.10;99.90
27540;DHT22;15906;52.046;4.724;2023-09-19T02:12:47;14.10;99.90
27540;DHT22;15906;52.046;4.724;2023-09-19T02:15:13;14.10;99.90
27540;DHT22;15906;52.046;4.724;2023-09-19T02:17:41;14.00;99.90
27540;DHT22;15906;52.046;4.724;2023-09-19T02:20:08;14.00;99.90
27540;DHT22;15906;52.046;4.724;2023-09-19T02:22:35;14.10;99.90
27540;DHT22;15906;52.046;4.724;2023-09-19T02:25:01;14.10;99.90
27540;DHT22;15906;52.046;4.724;2023-09-19T02:27:27;14.10;99.90
27540;DHT22;15906;52.046;4.724;2023-09-19T02:29:52;14.00;99.90
27540;DHT22;15906;52.046;4.724;2023-09-19T02:32:18;14.00;99.90
27540;DHT22;15906;52.046;4.724;2023-09-19T02:34:43;13.90;99.90
27540;DHT22;15906;52.046;4.724;2023-09-19T02:37:10;13.90;99.90
27540;DHT22;15906;52.046;4.724;2023-09-19T02:39:35;13.90;99.90
27540;DHT22;15906;52.046;4.724;2023-09-19T02:42:01;13.90;99.90
27540;DHT22;15906;52.046;4.724;2023-09-19T02:44:29;14.00;99.90
27540;DHT22;15906;52.046;4.724;2023-09-19T02:46:54;14.00;99.90
27540;DHT22;15906;52.046;4.724;2023-09-19T02:49:20;14.00;99.90
27540;DHT22;15906;52.046;4.724;2023-09-19T02:51:45;14.10;99.90
27540;DHT22;15906;52.046;4.724;2023-09-19T02:54:12;14.10;99.90
27540;DHT22;15906;52.046;4.724;2023-09-19T02:56:39;14.00;99.90
27540;DHT22;15906;52.046;4.724;2023-09-19T02:59:04;14.00;99.90
27540;DHT22;15906;52.046;4.724;2023-09-19T03:01:31;14.00;99.90
27540;DHT22;15906;52.046;4.724;2023-09-19T03:03:57;14.00;99.90
27540;DHT22;15906;52.046;4.724;2023-09-19T03:06:23;14.00;99.90
27540;DHT22;15906;52.046;4.724;2023-09-19T03:08:49;14.00;99.90
27540;DHT22;15906;52.046;4.724;2023-09-19T03:11:17;14.00;99.90
27540;DHT22;15906;52.046;4.724;2023-09-19T03:13:50;14.10;99.90
27540;DHT22;15906;52.046;4.724;2023-09-19T03:16:16;14.00;99.90
27540;DHT22;15906;52.046;4.724;2023-09-19T03:18:41;14.10;99.90
27540;DHT22;15906;52.046;4.724;2023-09-19T03:21:07;14.20;99.90
27540;DHT22;15906;52.046;4.724;2023-09-19T03:23:32;14.20;99.90
27540;DHT22;15906;52.046;4.724;2023-09-19T03:25:58;14.20;99.90
27540;DHT22;15906;52.046;4.724;2023-09-19T03:28:24;14.20;99.90
27540;DHT22;15906;52.046;4.724;2023-09-19T03:31:04;14.30;99.90
27540;DHT22;15906;52.046;4.724;2023-09-19T03:33:30;14.30;99.90
27540;DHT22;15906;52.046;4.724;2023-09-19T03:35:59;14.30;99.90
27540;DHT22;15906;52.046;4.724;2023-09-19T03:38:27;14.30;99.90
27540;DHT22;15906;52.046;4.724;2023-09-19T03:40:53;14.30;99.90
27540;DHT22;15906;52.046;4.724;2023-09-19T03:43:18;14.30;99.90
27540;DHT22;15906;52.046;4.724;2023-09-19T03:45:44;14.30;99.90
27540;DHT22;15906;52.046;4.724;2023-09-19T03:48:12;14.30;99.90
27540;DHT22;15906;52.046;4.724;2023-09-19T03:50:38;14.20;99.90
27540;DHT22;15906;52.046;4.724;2023-09-19T03:53:04;14.30;99.90
27540;DHT22;15906;52.046;4.724;2023-09-19T03:55:29;14.30;99.90
27540;DHT22;15906;52.046;4.724;2023-09-19T03:57:58;14.20;99.90
27540;DHT22;15906;52.046;4.724;2023-09-19T04:00:24;14.20;99.90
27540;DHT22;15906;52.046;4.724;2023-09-19T04:02:52;14.20;99.90
27540;DHT22;15906;52.046;4.724;2023-09-19T04:05:18;14.20;99.90
27540;DHT22;15906;52.046;4.724;2023-09-19T04:07:44;14.20;99.90
27540;DHT22;15906;52.046;4.724;2023-09-19T04:10:10;14.10;99.90
27540;DHT22;15906;52.046;4.724;2023-09-19T04:12:37;14.00;99.90
27540;DHT22;15906;52.046;4.724;2023-09-19T04:15:04;14.10;99.90
27540;DHT22;15906;52.046;4.724;2023-09-19T04:17:30;14.00;99.90
27540;DHT22;15906;52.046;4.724;2023-09-19T04:19:58;14.00;99.90
27540;DHT22;15906;52.046;4.724;2023-09-19T04:22:23;14.10;99.90
27540;DHT22;15906;52.046;4.724;2023-09-19T04:24:49;14.00;99.90
27540;DHT22;15906;52.046;4.724;2023-09-19T04:27:15;14.00;99.90
27540;DHT22;15906;52.046;4.724;2023-09-19T04:29:40;14.00;99.90
27540;DHT22;15906;52.046;4.724;2023-09-19T04:32:07;13.90;99.90
27540;DHT22;15906;52.046;4.724;2023-09-19T04:34:33;14.00;99.90
27540;DHT22;15906;52.046;4.724;2023-09-19T04:36:59;14.00;99.90
27540;DHT22;15906;52.046;4.724;2023-09-19T04:39:26;14.00;99.90
27540;DHT22;15906;52.046;4.724;2023-09-19T04:41:52;14.00;99.90
27540;DHT22;15906;52.046;4.724;2023-09-19T04:44:18;14.00;99.90
27540;DHT22;15906;52.046;4.724;2023-09-19T04:46:44;14.00;99.90
27540;DHT22;15906;52.046;4.724;2023-09-19T04:49:11;14.00;99.90
27540;DHT22;15906;52.046;4.724;2023-09-19T04:51:37;14.00;99.90
27540;DHT22;15906;52.046;4.724;2023-09-19T04:54:03;14.00;99.90
27540;DHT22;15906;52.046;4.724;2023-09-19T04:56:29;14.00;99.90
27540;DHT22;15906;52.046;4.724;2023-09-19T04:58:54;14.00;99.90
27540;DHT22;15906;52.046;4.724;2023-09-19T05:01:20;13.90;99.90
27540;DHT22;15906;52.046;4.724;2023-09-19T05:03:48;14.00;99.90
27540;DHT22;15906;52.046;4.724;2023-09-19T05:06:20;14.00;99.90
27540;DHT22;15906;52.046;4.724;2023-09-19T05:08:47;14.00;99.90
27540;DHT22;15906;52.046;4.724;2023-09-19T05:11:19;14.00;99.90
27540;DHT22;15906;52.046;4.724;2023-09-19T05:13:47;14.00;99.90
27540;DHT22;15906;52.046;4.724;2023-09-19T05:16:12;14.00;99.90
27540;DHT22;15906;52.046;4.724;2023-09-19T05:18:38;14.10;99.90
27540;DHT22;15906;52.046;4.724;2023-09-19T05:21:04;14.10;99.90
27540;DHT22;15906;52.046;4.724;2023-09-19T05:23:29;14.10;99.90
27540;DHT22;15906;52.046;4.724;2023-09-19T05:25:55;14.10;99.90
27540;DHT22;15906;52.046;4.724;2023-09-19T05:28:22;14.20;99.90
27540;DHT22;15906;52.046;4.724;2023-09-19T05:30:48;14.30;99.90
27540;DHT22;15906;52.046;4.724;2023-09-19T05:33:14;14.20;99.90
27540;DHT22;15906;52.046;4.724;2023-09-19T05:35:40;14.20;99.90
27540;DHT22;15906;52.046;4.724;2023-09-19T05:38:07;14.30;99.90
27540;DHT22;15906;52.046;4.724;2023-09-19T05:40:34;14.30;99.90
27540;DHT22;15906;52.046;4.724;2023-09-19T05:43:01;14.30;99.90
27540;DHT22;15906;52.046;4.724;2023-09-19T05:45:27;14.30;99.90
27540;DHT22;15906;52.046;4.724;2023-09-19T05:47:53;14.30;99.90
27540;DHT22;15906;52.046;4.724;2023-09-19T05:50:29;14.30;99.90
27540;DHT22;15906;52.046;4.724;2023-09-19T05:52:55;14.20;99.90
27540;DHT22;15906;52.046;4.724;2023-09-19T05:55:21;14.20;99.90
27540;DHT22;15906;52.046;4.724;2023-09-19T05:57:50;14.20;99.90
27540;DHT22;15906;52.046;4.724;2023-09-19T06:00:18;14.30;99.90
27540;DHT22;15906;52.046;4.724;2023-09-19T06:02:44;14.30;99.90
27540;DHT22;15906;52.046;4.724;2023-09-19T06:05:10;14.30;99.90
27540;DHT22;15906;52.046;4.724;2023-09-19T06:07:36;14.40;99.90
27540;DHT22;15906;52.046;4.724;2023-09-19T06:10:05;14.40;99.90
27540;DHT22;15906;52.046;4.724;2023-09-19T06:12:32;14.40;99.90
27540;DHT22;15906;52.046;4.724;2023-09-19T06:15:03;14.40;99.90
27540;DHT22;15906;52.046;4.724;2023-09-19T06:17:30;14.50;99.90
27540;DHT22;15906;52.046;4.724;2023-09-19T06:19:56;14.50;99.90
27540;DHT22;15906;52.046;4.724;2023-09-19T06:22:22;14.50;99.90
27540;DHT22;15906;52.046;4.724;2023-09-19T06:24:47;14.50;99.90
27540;DHT22;15906;52.046;4.724;2023-09-19T06:27:13;14.60;99.90
27540;DHT22;15906;52.046;4.724;2023-09-19T06:29:39;14.70;99.90
27540;DHT22;15906;52.046;4.724;2023-09-19T06:32:11;14.70;99.90
27540;DHT22;15906;52.046;4.724;2023-09-19T06:34:37;14.70;99.90
27540;DHT22;15906;52.046;4.724;2023-09-19T06:37:08;14.80;99.90
27540;DHT22;15906;52.046;4.724;2023-09-19T06:39:34;14.80;99.90
27540;DHT22;15906;52.046;4.724;2023-09-19T06:41:59;14.80;99.90
27540;DHT22;15906;52.046;4.724;2023-09-19T06:44:27;14.80;99.90
27540;DHT22;15906;52.046;4.724;2023-09-19T06:46:55;14.90;99.90
27540;DHT22;15906;52.046;4.724;2023-09-19T06:49:20;14.90;99.90
27540;DHT22;15906;52.046;4.724;2023-09-19T06:51:46;14.90;99.90
27540;DHT22;15906;52.046;4.724;2023-09-19T06:54:11;14.90;99.90
27540;DHT22;15906;52.046;4.724;2023-09-19T06:56:37;14.90;99.90
27540;DHT22;15906;52.046;4.724;2023-09-19T06:59:02;15.00;99.90
27540;DHT22;15906;52.046;4.724;2023-09-19T07:01:31;15.00;99.90
27540;DHT22;15906;52.046;4.724;2023-09-19T07:03:57;15.00;99.90
27540;DHT22;15906;52.046;4.724;2023-09-19T07:06:23;15.10;99.90
27540;DHT22;15906;52.046;4.724;2023-09-19T07:08:49;15.10;99.90
27540;DHT22;15906;52.046;4.724;2023-09-19T07:11:15;15.10;99.90
27540;DHT22;15906;52.046;4.724;2023-09-19T07:13:41;15.20;99.90
27540;DHT22;15906;52.046;4.724;2023-09-19T07:16:07;15.30;99.90
27540;DHT22;15906;52.046;4.724;2023-09-19T07:18:34;15.40;99.90
27540;DHT22;15906;52.046;4.724;2023-09-19T07:20:59;15.50;99.90
27540;DHT22;15906;52.046;4.724;2023-09-19T07:23:31;15.50;99.90
27540;DHT22;15906;52.046;4.724;2023-09-19T07:26:01;15.60;99.90
27540;DHT22;15906;52.046;4.724;2023-09-19T07:28:26;15.60;99.90
27540;DHT22;15906;52.046;4.724;2023-09-19T07:30:53;15.70;99.90
27540;DHT22;15906;52.046;4.724;2023-09-19T07:33:19;15.80;99.90
27540;DHT22;15906;52.046;4.724;2023-09-19T07:35:47;15.80;99.90
27540;DHT22;15906;52.046;4.724;2023-09-19T07:38:13;15.90;99.90
27540;DHT22;15906;52.046;4.724;2023-09-19T07:40:39;16.00;99.90
27540;DHT22;15906;52.046;4.724;2023-09-19T07:43:05;16.00;99.90
27540;DHT22;15906;52.046;4.724;2023-09-19T07:45:32;16.00;99.90
27540;DHT22;15906;52.046;4.724;2023-09-19T07:47:58;16.00;99.90
27540;DHT22;15906;52.046;4.724;2023-09-19T07:50:25;16.10;99.90
27540;DHT22;15906;52.046;4.724;2023-09-19T07:52:52;16.10;99.90
27540;DHT22;15906;52.046;4.724;2023-09-19T07:55:18;16.10;99.90
27540;DHT22;15906;52.046;4.724;2023-09-19T07:57:45;16.20;99.90
27540;DHT22;15906;52.046;4.724;2023-09-19T08:00:11;16.30;99.90
27540;DHT22;15906;52.046;4.724;2023-09-19T08:02:37;16.30;99.90
27540;DHT22;15906;52.046;4.724;2023-09-19T08:05:06;16.40;99.90
27540;DHT22;15906;52.046;4.724;2023-09-19T08:07:38;16.50;99.90
27540;DHT22;15906;52.046;4.724;2023-09-19T08:10:05;16.60;99.90
27540;DHT22;15906;52.046;4.724;2023-09-19T08:12:36;16.60;99.90
27540;DHT22;15906;52.046;4.724;2023-09-19T08:15:02;16.80;99.90
27540;DHT22;15906;52.046;4.724;2023-09-19T08:17:28;16.90;99.90
27540;DHT22;15906;52.046;4.724;2023-09-19T08:19:54;17.00;99.90
27540;DHT22;15906;52.046;4.724;2023-09-19T08:22:20;17.10;99.90
27540;DHT22;15906;52.046;4.724;2023-09-19T08:24:47;17.20;99.90
27540;DHT22;15906;52.046;4.724;2023-09-19T08:27:13;17.20;99.90
27540;DHT22;15906;52.046;4.724;2023-09-19T08:29:39;17.20;99.90
27540;DHT22;15906;52.046;4.724;2023-09-19T08:32:04;17.30;99.90
27540;DHT22;15906;52.046;4.724;2023-09-19T08:34:30;17.40;99.90
27540;DHT22;15906;52.046;4.724;2023-09-19T08:36:59;17.50;99.90
27540;DHT22;15906;52.046;4.724;2023-09-19T08:39:25;17.50;99.90
27540;DHT22;15906;52.046;4.724;2023-09-19T08:42:00;17.40;99.90
27540;DHT22;15906;52.046;4.724;2023-09-19T08:44:27;17.30;99.90
27540;DHT22;15906;52.046;4.724;2023-09-19T08:47:05;17.00;99.90
27540;DHT22;15906;52.046;4.724;2023-09-19T08:49:41;16.90;99.90
27540;DHT22;15906;52.046;4.724;2023-09-19T08:52:42;16.90;99.90
27540;DHT22;15906;52.046;4.724;2023-09-19T08:55:11;16.90;99.90
27540;DHT22;15906;52.046;4.724;2023-09-19T08:57:37;17.00;99.90
27540;DHT22;15906;52.046;4.724;2023-09-19T09:00:07;16.90;99.90
27540;DHT22;15906;52.046;4.724;2023-09-19T09:02:38;16.80;99.90
27540;DHT22;15906;52.046;4.724;2023-09-19T09:05:10;16.80;99.90
27540;DHT22;15906;52.046;4.724;2023-09-19T09:07:37;16.90;99.90
27540;DHT22;15906;52.046;4.724;2023-09-19T09:10:04;16.90;99.90
27540;DHT22;15906;52.046;4.724;2023-09-19T09:12:30;16.90;99.90
27540;DHT22;15906;52.046;4.724;2023-09-19T09:14:56;16.80;99.90
27540;DHT22;15906;52.046;4.724;2023-09-19T09:17:22;16.90;99.90
27540;DHT22;15906;52.046;4.724;2023-09-19T09:19:48;16.90;99.90
27540;DHT22;15906;52.046;4.724;2023-09-19T09:22:14;16.90;99.90
27540;DHT22;15906;52.046;4.724;2023-09-19T09:24:54;17.00;99.90
27540;DHT22;15906;52.046;4.724;2023-09-19T09:27:23;17.20;99.90
27540;DHT22;15906;52.046;4.724;2023-09-19T09:29:50;17.60;99.90
27540;DHT22;15906;52.046;4.724;2023-09-19T09:32:23;17.60;99.90
27540;DHT22;15906;52.046;4.724;2023-09-19T09:34:54;17.70;99.90
27540;DHT22;15906;52.046;4.724;2023-09-19T09:37:20;17.70;99.90
27540;DHT22;15906;52.046;4.724;2023-09-19T09:39:58;17.60;99.90
27540;DHT22;15906;52.046;4.724;2023-09-19T09:42:33;17.50;99.90
27540;DHT22;15906;52.046;4.724;2023-09-19T09:45:22;17.50;99.90
27540;DHT22;15906;52.046;4.724;2023-09-19T09:48:03;17.40;99.90
27540;DHT22;15906;52.046;4.724;2023-09-19T09:50:34;17.40;99.90
27540;DHT22;15906;52.046;4.724;2023-09-19T09:53:36;17.50;99.90
27540;DHT22;15906;52.046;4.724;2023-09-19T09:56:07;17.90;99.90
27540;DHT22;15906;52.046;4.724;2023-09-19T09:58:37;18.10;99.90
27540;DHT22;15906;52.046;4.724;2023-09-19T10:01:06;18.30;99.90
27540;DHT22;15906;52.046;4.724;2023-09-19T10:03:39;18.30;99.90
27540;DHT22;15906;52.046;4.724;2023-09-19T10:06:10;18.20;99.90
27540;DHT22;15906;52.046;4.724;2023-09-19T10:09:08;18.30;99.90
27540;DHT22;15906;52.046;4.724;2023-09-19T10:11:44;18.50;99.90
27540;DHT22;15906;52.046;4.724;2023-09-19T10:14:12;18.60;99.90
27540;DHT22;15906;52.046;4.724;2023-09-19T10:16:47;18.60;99.90
27540;DHT22;15906;52.046;4.724;2023-09-19T10:22:14;18.40;99.90
27540;DHT22;15906;52.046;4.724;2023-09-19T10:24:46;18.40;99.90
27540;DHT22;15906;52.046;4.724;2023-09-19T10:27:12;18.40;99.90
27540;DHT22;15906;52.046;4.724;2023-09-19T10:29:41;18.30;99.90
27540;DHT22;15906;52.046;4.724;2023-09-19T10:32:08;18.50;99.90
27540;DHT22;15906;52.046;4.724;2023-09-19T10:34:36;18.60;99.90
27540;DHT22;15906;52.046;4.724;2023-09-19T10:37:02;18.60;99.90
27540;DHT22;15906;52.046;4.724;2023-09-19T10:39:32;18.70;99.90
27540;DHT22;15906;52.046;4.724;2023-09-19T10:42:02;18.80;99.90
27540;DHT22;15906;52.046;4.724;2023-09-19T10:44:32;19.10;99.90
27540;DHT22;15906;52.046;4.724;2023-09-19T10:46:58;19.10;99.90
27540;DHT22;15906;52.046;4.724;2023-09-19T10:49:24;19.00;99.90
27540;DHT22;15906;52.046;4.724;2023-09-19T10:51:54;19.00;99.90
27540;DHT22;15906;52.046;4.724;2023-09-19T10:54:26;19.00;99.90
27540;DHT22;15906;52.046;4.724;2023-09-19T10:56:54;18.80;99.90
27540;DHT22;15906;52.046;4.724;2023-09-19T10:59:21;18.60;99.90
27540;DHT22;15906;52.046;4.724;2023-09-19T11:01:53;18.50;99.90
27540;DHT22;15906;52.046;4.724;2023-09-19T11:04:30;18.60;99.90
27540;DHT22;15906;52.046;4.724;2023-09-19T11:07:06;18.70;99.90
27540;DHT22;15906;52.046;4.724;2023-09-19T11:09:55;18.70;99.90
27540;DHT22;15906;52.046;4.724;2023-09-19T11:15:01;18.70;99.90
27540;DHT22;15906;52.046;4.724;2023-09-19T11:30:45;19.20;99.90
27540;DHT22;15906;52.046;4.724;2023-09-19T11:33:37;19.20;99.90
27540;DHT22;15906;52.046;4.724;2023-09-19T11:36:15;19.10;99.90
27540;DHT22;15906;52.046;4.724;2023-09-19T11:43:46;19.00;99.90
27540;DHT22;15906;52.046;4.724;2023-09-19T11:46:12;18.80;99.90
27540;DHT22;15906;52.046;4.724;2023-09-19T11:48:43;18.80;99.90
27540;DHT22;15906;52.046;4.724;2023-09-19T11:51:13;18.70;99.90
27540;DHT22;15906;52.046;4.724;2023-09-19T11:53:45;18.60;99.90
27540;DHT22;15906;52.046;4.724;2023-09-19T11:56:17;18.50;99.90
27540;DHT22;15906;52.046;4.724;2023-09-19T11:58:44;18.40;99.90
27540;DHT22;15906;52.046;4.724;2023-09-19T12:01:13;18.30;99.90
27540;DHT22;15906;52.046;4.724;2023-09-19T12:03:42;18.30;99.90
27540;DHT22;15906;52.046;4.724;2023-09-19T12:06:14;18.30;99.90
27540;DHT22;15906;52.046;4.724;2023-09-19T12:08:41;18.20;99.90
27540;DHT22;15906;52.046;4.724;2023-09-19T12:11:15;18.10;99.90
27540;DHT22;15906;52.046;4.724;2023-09-19T12:13:45;18.20;99.90
27540;DHT22;15906;52.046;4.724;2023-09-19T12:16:13;18.30;99.90
27540;DHT22;15906;52.046;4.724;2023-09-19T12:18:41;18.30;99.90
27540;DHT22;15906;52.046;4.724;2023-09-19T12:21:24;18.30;99.90
27540;DHT22;15906;52.046;4.724;2023-09-19T12:26:26;18.60;99.90
27540;DHT22;15906;52.046;4.724;2023-09-19T12:28:54;18.70;99.90
27540;DHT22;15906;52.046;4.724;2023-09-19T12:31:21;18.80;99.90
27540;DHT22;15906;52.046;4.724;2023-09-19T12:33:53;18.80;99.90
27540;DHT22;15906;52.046;4.724;2023-09-19T12:36:22;18.90;99.90
27540;DHT22;15906;52.046;4.724;2023-09-19T12:38:55;18.90;99.90
27540;DHT22;15906;52.046;4.724;2023-09-19T12:41:21;19.00;99.90
27540;DHT22;15906;52.046;4.724;2023-09-19T12:43:54;19.10;99.90
27540;DHT22;15906;52.046;4.724;2023-09-19T12:46:21;19.10;99.90
27540;DHT22;15906;52.046;4.724;2023-09-19T12:49:19;19.10;99.90
27540;DHT22;15906;52.046;4.724;2023-09-19T12:51:46;19.10;99.90
27540;DHT22;15906;52.046;4.724;2023-09-19T12:54:13;19.00;99.90
27540;DHT22;15906;52.046;4.724;2023-09-19T12:56:43;19.00;99.90
27540;DHT22;15906;52.046;4.724;2023-09-19T12:59:16;19.20;99.90
27540;DHT22;15906;52.046;4.724;2023-09-19T13:01:42;19.30;99.90
27540;DHT22;15906;52.046;4.724;2023-09-19T13:04:21;19.30;99.90
27540;DHT22;15906;52.046;4.724;2023-09-19T13:06:55;19.20;99.90
27540;DHT22;15906;52.046;4.724;2023-09-19T13:09:27;19.20;99.90
27540;DHT22;15906;52.046;4.724;2023-09-19T13:12:04;19.20;99.90
27540;DHT22;15906;52.046;4.724;2023-09-19T13:14:30;19.10;99.90
27540;DHT22;15906;52.046;4.724;2023-09-19T13:17:17;19.00;99.90
27540;DHT22;15906;52.046;4.724;2023-09-19T13:19:49;18.90;99.90
27540;DHT22;15906;52.046;4.724;2023-09-19T13:25:18;18.70;99.90
27540;DHT22;15906;52.046;4.724;2023-09-19T13:27:45;18.70;99.90
27540;DHT22;15906;52.046;4.724;2023-09-19T13:30:12;18.70;99.90
27540;DHT22;15906;52.046;4.724;2023-09-19T13:32:37;18.70;99.90
27540;DHT22;15906;52.046;4.724;2023-09-19T13:35:06;18.70;99.90
27540;DHT22;15906;52.046;4.724;2023-09-19T13:37:34;18.90;99.90
27540;DHT22;15906;52.046;4.724;2023-09-19T13:40:05;18.90;99.90
27540;DHT22;15906;52.046;4.724;2023-09-19T13:42:31;18.90;99.90
27540;DHT22;15906;52.046;4.724;2023-09-19T13:44:57;18.90;99.90
27540;DHT22;15906;52.046;4.724;2023-09-19T13:47:22;18.90;99.90
27540;DHT22;15906;52.046;4.724;2023-09-19T13:49:50;18.80;99.90
27540;DHT22;15906;52.046;4.724;2023-09-19T13:52:20;18.70;99.90
27540;DHT22;15906;52.046;4.724;2023-09-19T13:54:47;18.70;99.90
27540;DHT22;15906;52.046;4.724;2023-09-19T13:57:12;18.60;99.90
27540;DHT22;15906;52.046;4.724;2023-09-19T13:59:38;18.50;99.90
27540;DHT22;15906;52.046;4.724;2023-09-19T14:02:04;18.50;99.90
27540;DHT22;15906;52.046;4.724;2023-09-19T14:04:31;18.50;99.90
27540;DHT22;15906;52.046;4.724;2023-09-19T14:06:57;18.40;99.90
27540;DHT22;15906;52.046;4.724;2023-09-19T14:09:23;18.40;99.90
27540;DHT22;15906;52.046;4.724;2023-09-19T14:11:50;18.30;99.90
27540;DHT22;15906;52.046;4.724;2023-09-19T14:14:20;18.40;99.90
27540;DHT22;15906;52.046;4.724;2023-09-19T14:16:49;18.40;99.90
27540;DHT22;15906;52.046;4.724;2023-09-19T14:19:14;18.30;99.90
27540;DHT22;15906;52.046;4.724;2023-09-19T14:21:42;18.40;99.90
27540;DHT22;15906;52.046;4.724;2023-09-19T14:24:07;18.30;99.90
27540;DHT22;15906;52.046;4.724;2023-09-19T14:26:38;18.30;99.90
27540;DHT22;15906;52.046;4.724;2023-09-19T14:29:04;18.10;99.90
27540;DHT22;15906;52.046;4.724;2023-09-19T14:31:33;18.00;99.90
27540;DHT22;15906;52.046;4.724;2023-09-19T14:33:59;17.90;99.90
27540;DHT22;15906;52.046;4.724;2023-09-19T14:36:25;17.80;99.90
27540;DHT22;15906;52.046;4.724;2023-09-19T14:38:54;17.70;99.90
27540;DHT22;15906;52.046;4.724;2023-09-19T14:41:20;17.70;99.90
27540;DHT22;15906;52.046;4.724;2023-09-19T14:43:46;17.60;99.90
27540;DHT22;15906;52.046;4.724;2023-09-19T14:46:12;17.70;99.90
27540;DHT22;15906;52.046;4.724;2023-09-19T14:48:37;17.80;99.90
27540;DHT22;15906;52.046;4.724;2023-09-19T14:51:04;17.70;99.90
27540;DHT22;15906;52.046;4.724;2023-09-19T14:53:31;17.80;99.90
27540;DHT22;15906;52.046;4.724;2023-09-19T14:55:59;17.90;99.90
27540;DHT22;15906;52.046;4.724;2023-09-19T14:58:25;17.90;99.90
27540;DHT22;15906;52.046;4.724;2023-09-19T15:00:51;18.00;99.90
27540;DHT22;15906;52.046;4.724;2023-09-19T15:03:17;18.10;99.90
27540;DHT22;15906;52.046;4.724;2023-09-19T15:05:43;18.10;99.90
27540;DHT22;15906;52.046;4.724;2023-09-19T15:08:09;18.00;99.90
27540;DHT22;15906;52.046;4.724;2023-09-19T15:10:34;18.00;99.90
27540;DHT22;15906;52.046;4.724;2023-09-19T15:13:00;18.00;99.90
27540;DHT22;15906;52.046;4.724;2023-09-19T15:15:25;18.00;99.90
27540;DHT22;15906;52.046;4.724;2023-09-19T15:17:51;18.00;99.90
27540;DHT22;15906;52.046;4.724;2023-09-19T15:20:16;18.00;99.90
27540;DHT22;15906;52.046;4.724;2023-09-19T15:22:43;18.00;99.90
27540;DHT22;15906;52.046;4.724;2023-09-19T15:25:09;18.00;99.90
27540;DHT22;15906;52.046;4.724;2023-09-19T15:27:35;18.00;99.90
27540;DHT22;15906;52.046;4.724;2023-09-19T15:30:02;18.00;99.90
27540;DHT22;15906;52.046;4.724;2023-09-19T15:32:28;18.10;99.90
27540;DHT22;15906;52.046;4.724;2023-09-19T15:34:53;18.10;99.90
27540;DHT22;15906;52.046;4.724;2023-09-19T15:37:19;18.10;99.90
27540;DHT22;15906;52.046;4.724;2023-09-19T15:39:45;18.20;99.90
27540;DHT22;15906;52.046;4.724;2023-09-19T15:42:11;18.20;99.90
27540;DHT22;15906;52.046;4.724;2023-09-19T15:44:37;18.30;99.90
27540;DHT22;15906;52.046;4.724;2023-09-19T15:47:04;18.30;99.90
27540;DHT22;15906;52.046;4.724;2023-09-19T15:49:30;18.20;99.90
27540;DHT22;15906;52.046;4.724;2023-09-19T15:51:55;18.20;99.90
27540;DHT22;15906;52.046;4.724;2023-09-19T15:54:21;18.20;99.90
27540;DHT22;15906;52.046;4.724;2023-09-19T15:56:47;18.20;99.90
27540;DHT22;15906;52.046;4.724;2023-09-19T15:59:14;18.10;99.90
27540;DHT22;15906;52.046;4.724;2023-09-19T16:01:41;18.00;99.90
27540;DHT22;15906;52.046;4.724;2023-09-19T16:04:08;17.90;99.90
27540;DHT22;15906;52.046;4.724;2023-09-19T16:06:37;17.80;99.90
27540;DHT22;15906;52.046;4.724;2023-09-19T16:09:04;17.70;99.90
27540;DHT22;15906;52.046;4.724;2023-09-19T16:11:34;17.60;99.90
27540;DHT22;15906;52.046;4.724;2023-09-19T16:14:03;17.40;99.90
27540;DHT22;15906;52.046;4.724;2023-09-19T16:16:30;17.40;99.90
27540;DHT22;15906;52.046;4.724;2023-09-19T16:19:00;17.40;99.90
27540;DHT22;15906;52.046;4.724;2023-09-19T16:21:32;17.40;99.90
27540;DHT22;15906;52.046;4.724;2023-09-19T16:23:59;17.40;99.90